Régionale Moyenne Distance Melisey (70) - D

Date : 16/04/2011
Distance : 2,800 km

Place Nom Licence Catégorie Club Temps min/km CN à J-60 Points Différence Nouveau CN
1 HABERKORN Chloé 10396 D16 2105BO 0:20:37 7'21 3886 6290 +2404 4733
2 POIROT Delphine 15979 D16 8809LO 0:20:46 7'25 4981 6245 +1264 5808
3 BOULESTREAU Zélie 11309 D16 2904BR 0:21:21 7'37 5336 6074 +738 5819
4 CLOUARD Lucile 8551 D16 7807IF 0:21:39 7'43 4982 5990 +1008 5152
5 DEVRIEUX Naïs 7672 D16 4203RA 0:21:40 7'44 4382 5985 +1603 4498
6 DENAIX Lou 7711 D16 7403RA 0:22:16 7'57 4432 5824 +1392 4798
7 HUMMEL-AZAIS Margaux 18432 D16 7403RA 0:22:50 8'09 4546 5679 +1133 4792
8 BODY Mathilde 10184 D16 7305RA 0:23:28 8'22 3923 5526 +1603 4763
9 PETER-JAN Lucile 19276 D16 3705CE 0:24:56 8'54 3678 5201 +1523 4024
10 MASCARELL Henri 8928 H60 6911RA 0:25:12 9'00 5175 5146 -29 5175
11 DECHAVANNE Jean-Francois 3461 H60 6911RA 0:25:29 9'06 5012 5089 +77 5009
12 GIRARD Lucille 19689 D16 3705CE 0:26:40 9'31 3674 4863 +1189 4109
13 MAISONNEUVE Valentine 16357 D16 4203RA 0:26:52 9'35 3797 4827 +1030 4293
14 RIVOLLIER Isaline 22451 D16 4201RA 0:26:58 9'37 2550 4809 +2259 2862
15 AMET Marion 14575 D16 8809LO 0:27:08 9'41 4039 4779 +740 4161
16 PONCET Jean-Pierre 16756 H60 3913FC 0:27:09 9'41 5541 4776 -765 5263
17 TAILLANDIER Guy 1583 H65 0801CA 0:27:14 9'43 5604 4762 -842 5669
18 VENON Gérard 2738 H65 2105BO 0:27:21 9'46 4800 4742 -58 4895
19 GUNTHER Marie-Christine 7983 D50 2109BO 0:27:36 9'51 3214 4699 +1485 4781
20 LEPERQUE Ophelie 20200 D16 6208NO 0:27:37 9'51 3992 4696 +704 4051
21 PEREIRA Jean-Claude 1220 H60 4010AQ 0:27:44 9'54 5070 4676 -394 5070
22 COLOMBET Christian 3163 H65 2108BO 0:28:09 10'03 4851 4607 -244 4892
23 ROULLEAUX Julie 11559 D16 9105IF 0:28:15 10'05 4216 4591 +375 4381
24 COURNUT Alain 626 H60 3308AQ 0:28:21 10'07 4518 4574 +56 4740
25 GUINOT Marion 15018 D16 2108BO 0:28:23 10'08 3334 4569 +1235 3558
26 BISSIERE Camille 19486 D16 4709AQ 0:28:30 10'10 3327 4550 +1223 3645
27 VANOVERBERGHE Camille 21323 D16 6208NO 0:28:46 10'16 4163 4508 +345 4335
28 D'HARREVILLE Anne 6478 D50 8809LO 0:29:12 10'25 3843 4441 +598 3963
29 LOCUSSE Robert 2530 H60 5703LO 0:30:10 10'46 4352 4299 -53 4545
30 SINIBALDI Marc 1347 H65 3801RA 0:30:15 10'48 5008 4287 -721 5011
31 CAMAS Mandye 19238 D16 5907NO 0:30:21 10'50 3842 4273 +431 4464
32 ALLANCON Michel 1005 H60 2906BR 0:30:30 10'53 4564 4252 -312 4626
33 CHARDOT Marion 22315 D16 7807IF 0:30:44 10'58 3001 4220 +1219 3437
34 VERDIN Alix 15276 D16 7109BO 0:31:02 11'05 3457 4179 +722 3691
35 LUTHRINGER Coline 10091 D16 8809LO 0:31:11 11'08 3104 4159 +1055 3526
36 DUQUENNE Audrey 23885 D16 5907NO 0:32:02 11'26 1914 4048 +2134 2991
37 KORCHAK Nathalie 13638 D16 6806AL 0:32:17 11'31 3837 4017 +180 3900
38 DEVILLE Nelly 2401 D60 5402LO 0:32:48 11'42 4368 3954 -414 4511
39 VUILLET Christian 2712 H60 2105BO 0:33:02 11'47 4755 3926 -829 4707
40 PERE Catherine 2730 D50 2105BO 0:33:13 11'51 3858 3904 +46 3772
41 BORNARD Julie 9402 D16 7305RA 0:33:20 11'54 3001 3890 +889 3227
42 MARTIN Pascale 23568 D50 7512IF 0:33:30 11'57 3200 3871 +671 3530
43 LAZAROWICZ Richard 3600 H60 7512IF 0:33:38 12'00 3455 3856 +401 3607
44 ENARD Yves 2666 H60 2101BO 0:33:47 12'03 4562 3839 -723 4834
45 GUILLON Alain 1854 H60 7701IF 0:33:48 12'04 4791 3837 -954 4201
46 VOGT Claude 2558 H65 6709AL 0:34:23 12'16 4406 3772 -634 4298
47 BESTEL Sandra 10758 D16 9105IF 0:34:30 12'19 2913 3759 +846 3032
48 LEMBLE Andre 2263 H65 6701AL 0:34:44 12'24 3779 3734 -45 3784
49 GUILMAIN Melanie 20572 D16 6208NO 0:34:52 12'27 3786 3719 -67 3956
50 TESSIER Daniel 2006 H60 7709IF 0:35:21 12'37 4076 3669 -407 4103
51 SCHREIBER J-Marie 1919 H60 6804AL 0:35:23 12'38 3440 3665 +225 3582
52 GOURLAIN Mathilde 18299 D16 6205NO 0:35:25 12'38 3636 3662 +26 3731
53 BONNET Christine 2400 D55 5402LO 0:35:41 12'44 4475 3634 -841 4524
54 MASSON Michel 4317 H60 2105BO 0:35:41 12'44 4346 3634 -712 4074
55 COMBET Annie 813 D50 4203RA 0:36:37 13'04 4213 3542 -671 3940
56 ANNE Roger 1673 H60 0111RA 0:37:06 13'15 3948 3495 -453 3728
57 LOUAT Aime 12192 H60 8903BO 0:37:09 13'16 4501 3491 -1010 4552
58 MAIRE Candice 20170 D16 8807LO 0:37:23 13'21 3333 3469 +136 3289
59 DUPOIRIEUX Sophie 10496 D50 8807LO 0:37:33 13'24 2974 3454 +480 3464
60 REGNIER Claire 24289 D16 2108BO 0:37:41 13'27 3441 0
61 ROLLET Daniel 2411 H65 5415LO 0:37:58 13'33 3366 3416 +50 3361
62 MOISSET Jacques 2328 H60 7403RA 0:38:08 13'37 5590 3401 -2189 5590
63 ROBERT Francoise 6491 D60 6913RA 0:38:15 13'39 3737 3390 -347 3533
64 LASSEIGNE Laurent 12763 H40 3308AQ 0:38:31 13'45 3329 3367 +38 3337
65 RIAULT Bernard 2555 H65 6804AL 0:38:46 13'50 3464 3345 -119 3373
66 NOY-GSELL Arielle 11305 D16 7807IF 0:39:14 14'00 2327 3305 +978 2536
67 CHARIAU Michel 3356 H60 7715IF 0:39:14 14'00 3469 3305 -164 3455
68 GATY Daniele 841 D55 4203RA 0:40:06 14'19 4215 3234 -981 4206
69 PITAVAL Sylvie 12060 D50 4201RA 0:40:34 14'29 3407 3197 -210 3372
70 DIEUDONNE Madeleine 1380 D60 7808IF 0:40:36 14'30 3910 3194 -716 3923
71 DUBROCA Monique 633 D55 3308AQ 0:40:40 14'31 4395 3189 -1206 4188
72 GENEVE Marc 8028 H60 5703LO 0:40:41 14'31 3110 3188 +78 3230
73 VILLEDIEU Martine 13752 D55 6913RA 0:40:44 14'32 3706 3184 -522 3659
74 BASTIEN Chantal 9509 D50 6804AL 0:41:12 14'42 2936 3148 +212 3424
75 PONCET Catherine 16755 D50 3913FC 0:41:24 14'47 2842 3132 +290 2612
76 CERET Martine 4597 D55 4203RA 0:41:29 14'48 2708 3126 +418 2761
77 GERBEAUX Marie-jeanne 22417 D55 6205NO 0:41:39 14'52 2881 3114 +233 3015
78 THIEBAULT J-Philippe 5533 H60 6804AL 0:41:43 14'53 3389 3109 -280 3354
79 RICHARD Nicole 14245 D60 0207PI 0:41:45 14'54 3274 3106 -168 3294
80 EGGLI Roland 5938 H65 6803AL 0:42:10 15'03 4819 3075 -1744 4819
81 THIEBAULD Georges 4389 H70 8809LO 0:42:29 15'10 2995 3053 +58 3044
82 DUBREZ Daniel 336 H60 6803AL 0:42:46 15'16 3492 3032 -460 3492
83 SOL Michel 933 H60 7707IF 0:42:50 15'17 4626 3028 -1598 4341
84 BAUDOIN Jean-Paul 16352 H60 0615AZ 0:43:49 15'38 4156 2960 -1196 4156
85 MOISSET Nicole 2329 D50 7403RA 0:43:53 15'40 2996 2955 -41 3047
86 DIEUDONNE Roland 1381 H65 7808IF 0:44:06 15'45 3386 2941 -445 3482
87 BRUNEL Marie-Jo 8761 D55 8903BO 0:44:26 15'52 3945 2919 -1026 3969
88 ANTOINE Regis 1276 H70 7108BO 0:44:31 15'53 3679 2913 -766 3819
89 VOGT Christiane 2557 D60 6709AL 0:44:46 15'59 3610 2897 -713 3610
90 CAMPBELL Jane 17406 D50 7807IF 0:44:51 16'01 4585 2891 -1694 4621
91 CHALOPIN Catherine 3674 D60 2105BO 0:45:11 16'08 3763 2870 -893 3732
92 ENARD Monique 2664 D60 2101BO 0:45:22 16'12 3466 2859 -607 3325
93 GONNEAUD Perrine 11385 D16 7109BO 0:46:03 16'26 2919 2816 -103 2978
94 PIERSON J-Luc 3320 H60 6806AL 0:46:29 16'36 3394 2790 -604 3313
95 LABEUR Roselyne 905 D60 7707IF 0:46:34 16'37 2768 2785 +17 2940
96 ANNE Brigitte 1672 D60 0111RA 0:46:34 16'37 3620 2785 -835 3455
97 POULAIN Odile 1948 D50 5908NO 0:46:36 16'38 2978 2783 -195 3193
98 CAILLET Véronique 11388 D50 2109BO 0:47:48 17'04 3598 2713 -885 3716
99 MOULIERE M-Bernadette 2888 D65 0207PI 0:47:49 17'04 3138 2712 -426 3200
100 LAMBERT Nadine 5607 D55 7203PL 0:48:00 17'08 3102 2702 -400 3163
101 BERGER M-Jose 7182 D60 5703LO 0:48:02 17'09 3252 2700 -552 3076
102 BULLIER Alisson 23427 D16 0207PI 0:48:04 17'10 2268 2698 +430 2613
103 LEMERCIER Jocelyne 2474 D60 5407LO 0:48:05 17'10 2752 2697 -55 2735
104 JEANPIERRE M-Therese 3302 D65 8809LO 0:48:56 17'28 3218 2650 -568 3105
105 MONTERRAT Martine 8512 D50 4203RA 0:51:43 18'28 2684 2508 -176 2597
106 DESAINTJAN Claude 2547 H70 6804AL 0:52:19 18'41 2738 2479 -259 2920
107 SIMONET Marie 931 D60 7707IF 0:52:56 18'54 2619 2450 -169 2793
108 DEBARBIEUX Julie 24574 D16 2108BO 0:54:55 19'36 2361 0
109 BOURRIN M-Francoise 807 D55 4203RA 0:56:31 20'11 2621 2295 -326 2688
110 JASTRZEBSKI Chloé 23790 D16 4203RA 0:58:52 21'01 2203 2115
111 SUTTER Odile 2387 D50 6806AL 0:59:53 21'23 2793 2166 -627 2753
112 PEYRARD Daniel 24160 H65 2101BO 0:59:58 21'25 2163 0
113 FISCHER M-Dominique 340 D50 6803AL 1:00:12 21'30 2377 2154 -223 2255
114 GEROMEY Dominique 3717 H65 8809LO 1:00:24 21'34 2370 2147 -223 2247
115 THIERRY-FISCHER Chri 363 D60 6803AL 1:00:25 21'34 3139 2146 -993 3139
116 DESAINTJAN Alice 2546 D70 6804AL 1:00:38 21'39 1545 2139 +594 2086
117 LAZAROWICZ Rose-Marie 3598 D60 7512IF 1:01:48 22'04 1793 2098 +305 1911
118 GUIGNARD Marie 11369 D50 7203PL 1:02:11 22'12 3301 2085 -1216 3263
119 VERDIN Christine 15274 D50 7109BO 1:03:04 22'31 2581 2056 -525 2370
120 HITZ Rene 1883 H70 6804AL 1:03:56 22'50 1991 2028 +37 2093
121 GREVET Claudie 15296 D50 6806AL 1:06:09 23'37 2585 1960 -625 2548
122 LE DREAU Liliane 9397 D50 4203RA 1:07:02 23'56 2516 1935 -581 2409
123 BREMAUD Veronique 5804 D50 1202MP 1:08:10 24'20 2415 1902 -513 2555
124 TOP Camille 24806 D16 6208NO 1:09:02 24'39 1879 0
125 TESSIER Ariane 2004 D55 7709IF 1:09:08 24'41 2605 1876 -729 2763
126 BASTIEN-FATH Nicole 8954 D65 5402LO 1:10:55 25'19 2265 1829 -436 2249
127 GAWSEWITCH Gerald 3370 H70 7707IF 1:11:32 25'32 1786 1813 +27 2333
128 BAGUEREY Catherine 4290 D50 6804AL 1:13:24 26'12 1767 1751
129 MEY Milena 19782 D21 7709IF 1:15:26 26'56 1785 1719 -66 1889
130 THIEBAULT M-Paule 4490 D60 6804AL 1:15:45 27'03 2003 1712 -291 1961
131 TEGNY Laurine 23659 D16 6205NO 1:18:00 27'51 0 1663 1855
132 ALLANCON Claudine 14632 D60 2906BR 1:18:14 27'56 2103 1658 -445 2058
133 JOLY Alain 2485 H60 8807LO 1:20:30 28'45 2228 1611 -617 2027
134 LAMINETTE M-Odile 17201 D50 5907NO 1:21:13 29'00 2682 1597 -1085 2682
135 DINET Robert 16987 H70 2101BO 1:23:50 29'56 1814 1547 -267 1462
136 LUDEWIG-JAMES Carol 15894 D70 5907NO 1:29:16 31'52 2160 1453 -707 2414
137 MINARD Agnès 4321 D50 2109BO 1:31:47 32'46 1406 1413 +7 1522
138 DODIN Genevieve 4392 D60 8809LO 1:43:42 37'02 2315 1251 -1064 2387
139 LAURENT Therese 725 D70 2508FC 1:45:43 37'45 1891 1227 -664 1891
140 ROBIN Mélanie 24547 D21 6911RA 1:52:08 40'02 1156 0
141 PHEULPIN Sylvia 24345 D21 6803AL 2:23:03 51'05 907 0
DODIN Yves 4391 H60 8809LO pm None 3567 0 3476
TRESSOL Ludivine 20533 D16 4704AQ pm None 2879 0 2879
SIMONET Jean 930 H65 7707IF pm None 4350 0 4338
WAAS Catherine 1731 D50 5116CA pm None 2555 0 2805
PAPILLON Françoise 2761 D55 2109BO pm None 2750 0 2797
GERBEAUX Jean-paul 23596 H60 6205NO pm None 1909 0 2316
BOURRIN Michel 809 H60 4203RA pm None 2374 0 2374
ROLLET Marie-Madeleine 2413 D65 5415LO pm None 2598 0 2095
VESCOVO Odile 368 D65 6803AL pm None 2306 0 2304
PEETERS Simone 295 D70 7703IF pm None 2537 0 2542
CASASSAS Antoine 15858 H60 6804AL pm None 3022 0 3022